createdAt,value
2024-02-06T00:01:52.605Z,9.15
2024-02-06T00:04:19.950Z,9.00
2024-02-06T00:06:46.541Z,9.21
2024-02-06T00:09:13.171Z,9.21
2024-02-06T00:11:39.930Z,9.25
2024-02-06T00:14:06.888Z,9.25
2024-02-06T00:16:33.562Z,9.35
2024-02-06T00:19:00.174Z,9.32
2024-02-06T00:21:26.862Z,9.30
2024-02-06T00:23:53.355Z,9.20
2024-02-06T00:26:19.891Z,9.07
2024-02-06T00:28:47.717Z,9.06
2024-02-06T00:31:14.519Z,9.05
2024-02-06T00:33:41.304Z,8.86
2024-02-06T00:36:08.254Z,8.63
2024-02-06T00:38:34.899Z,8.33
2024-02-06T00:41:01.604Z,8.24
2024-02-06T00:43:29.436Z,8.24
2024-02-06T00:45:56.079Z,7.95
2024-02-06T00:48:22.914Z,7.70
2024-02-06T00:50:49.852Z,7.90
2024-02-06T00:53:16.533Z,7.88
2024-02-06T00:55:43.150Z,7.78
2024-02-06T00:58:10.098Z,7.42
2024-02-06T01:00:37.659Z,7.22
2024-02-06T01:03:04.344Z,7.23
2024-02-06T01:05:31.011Z,7.11
2024-02-06T01:07:59.296Z,6.96
2024-02-06T01:10:26.188Z,6.88
2024-02-06T01:12:52.787Z,6.82
2024-02-06T01:15:19.606Z,6.68
2024-02-06T01:17:46.319Z,6.53
2024-02-06T01:20:13.021Z,6.54
2024-02-06T01:22:39.774Z,6.43
2024-02-06T01:25:06.613Z,6.37
2024-02-06T01:27:33.198Z,6.46
2024-02-06T01:29:59.745Z,6.51
2024-02-06T01:32:26.252Z,6.45
2024-02-06T01:34:52.782Z,6.15
2024-02-06T01:37:19.415Z,6.05
2024-02-06T01:39:46.139Z,6.03
2024-02-06T01:42:12.727Z,6.04
2024-02-06T01:44:39.204Z,5.85
2024-02-06T01:47:08.795Z,5.89
2024-02-06T01:49:36.910Z,5.81
2024-02-06T01:52:05.409Z,6.00
2024-02-06T01:54:31.997Z,5.79
2024-02-06T01:56:58.611Z,5.97
2024-02-06T01:59:25.781Z,5.81
2024-02-06T02:01:52.544Z,5.66
2024-02-06T02:04:19.591Z,5.44
2024-02-06T02:06:46.910Z,5.29
2024-02-06T02:09:13.568Z,5.28
2024-02-06T02:11:40.157Z,5.05
2024-02-06T02:14:08.222Z,5.10
2024-02-06T02:16:34.791Z,4.97
2024-02-06T02:19:01.499Z,4.85
2024-02-06T02:21:28.252Z,4.77
2024-02-06T02:23:56.890Z,4.77
2024-02-06T02:26:24.462Z,4.84
2024-02-06T02:28:51.958Z,4.80
2024-02-06T02:31:21.672Z,4.78
2024-02-06T02:33:48.848Z,4.80
2024-02-06T02:36:16.069Z,4.69
2024-02-06T02:38:43.438Z,4.59
2024-02-06T02:41:10.091Z,4.52
2024-02-06T02:43:36.776Z,4.27
2024-02-06T02:46:04.005Z,4.27
2024-02-06T02:48:30.786Z,4.35
2024-02-06T02:50:57.393Z,4.37
2024-02-06T02:53:23.970Z,4.13
2024-02-06T02:55:50.709Z,4.19
2024-02-06T02:58:17.755Z,4.15
2024-02-06T03:00:44.521Z,4.06
2024-02-06T03:03:11.201Z,4.10
2024-02-06T03:05:39.142Z,4.15
2024-02-06T03:08:06.137Z,3.94
2024-02-06T03:10:32.639Z,3.82
2024-02-06T03:12:59.225Z,3.93
2024-02-06T03:15:27.030Z,3.87
2024-02-06T03:17:55.642Z,3.80
2024-02-06T03:20:22.474Z,3.82
2024-02-06T03:22:49.894Z,3.71
2024-02-06T03:25:17.152Z,3.72
2024-02-06T03:27:44.649Z,3.72
2024-02-06T03:30:11.826Z,3.69
2024-02-06T03:32:39.518Z,3.72
2024-02-06T03:35:08.500Z,3.78
2024-02-06T03:37:35.456Z,3.69
2024-02-06T03:40:02.323Z,3.68
2024-02-06T03:42:29.135Z,3.54
2024-02-06T03:44:55.739Z,3.46
2024-02-06T03:47:22.695Z,3.41
2024-02-06T03:49:49.392Z,3.36
2024-02-06T03:52:16.139Z,3.26
2024-02-06T03:54:42.856Z,3.26
2024-02-06T03:57:09.471Z,3.26
2024-02-06T03:59:36.651Z,3.13
2024-02-06T04:02:04.549Z,3.19
2024-02-06T04:04:31.572Z,3.14
2024-02-06T04:06:58.278Z,3.17
2024-02-06T04:09:24.959Z,3.04
2024-02-06T04:11:51.662Z,3.03
2024-02-06T04:14:18.314Z,2.99
2024-02-06T04:16:45.692Z,2.96
2024-02-06T04:19:12.714Z,3.06
2024-02-06T04:21:39.599Z,2.96
2024-02-06T04:24:07.349Z,2.98
2024-02-06T04:26:33.985Z,3.04
2024-02-06T04:29:00.523Z,3.03
2024-02-06T04:31:27.108Z,3.04
2024-02-06T04:33:54.081Z,2.96
2024-02-06T04:36:22.120Z,2.98
2024-02-06T04:38:48.649Z,2.87
2024-02-06T04:41:15.140Z,2.88
2024-02-06T04:43:41.786Z,2.87
2024-02-06T04:46:08.695Z,2.97
2024-02-06T04:48:35.436Z,2.94
2024-02-06T04:51:02.323Z,3.08
2024-02-06T04:53:29.363Z,3.03
2024-02-06T04:55:56.449Z,2.90
2024-02-06T04:58:22.997Z,2.65
2024-02-06T05:00:49.840Z,2.65
2024-02-06T05:03:16.423Z,2.55
2024-02-06T05:05:42.984Z,2.60
2024-02-06T05:08:10.540Z,2.56
2024-02-06T05:10:37.149Z,2.44
2024-02-06T05:13:03.817Z,2.57
2024-02-06T05:15:30.468Z,2.68
2024-02-06T05:17:57.453Z,2.57
2024-02-06T05:20:24.890Z,2.47
2024-02-06T05:22:51.465Z,2.56
2024-02-06T05:25:19.701Z,2.51
2024-02-06T05:27:48.448Z,2.43
2024-02-06T05:30:15.195Z,2.52
2024-02-06T05:32:41.752Z,2.64
2024-02-06T05:35:08.707Z,2.55
2024-02-06T05:37:35.510Z,2.59
2024-02-06T05:40:02.312Z,2.62
2024-02-06T05:42:28.954Z,2.53
2024-02-06T05:44:55.419Z,2.51
2024-02-06T05:47:21.952Z,2.63
2024-02-06T05:49:48.595Z,2.70
2024-02-06T05:52:15.195Z,2.65
2024-02-06T05:54:41.671Z,2.67
2024-02-06T05:57:08.288Z,2.80
2024-02-06T05:59:35.048Z,2.79
2024-02-06T06:02:01.722Z,2.76
2024-02-06T06:04:31.121Z,2.97
2024-02-06T06:06:58.438Z,2.87
2024-02-06T06:09:25.085Z,2.96
2024-02-06T06:11:51.669Z,3.10
2024-02-06T06:14:18.191Z,3.11
2024-02-06T06:16:44.815Z,3.13
2024-02-06T06:19:11.531Z,3.25
2024-02-06T06:21:42.243Z,3.29
2024-02-06T06:24:10.147Z,3.40
2024-02-06T06:26:38.455Z,3.44
2024-02-06T06:29:05.143Z,3.52
2024-02-06T06:31:31.887Z,3.57
2024-02-06T06:33:58.621Z,3.56
2024-02-06T06:36:25.548Z,3.71
2024-02-06T06:38:52.649Z,3.69
2024-02-06T06:41:19.425Z,3.98
2024-02-06T06:43:46.131Z,3.98
2024-02-06T06:46:12.799Z,4.09
2024-02-06T06:48:39.607Z,4.15
2024-02-06T06:51:06.203Z,4.33
2024-02-06T06:53:32.733Z,4.57
2024-02-06T06:55:59.264Z,4.55
2024-02-06T06:58:25.777Z,4.64
2024-02-06T07:00:52.609Z,4.73
2024-02-06T07:03:20.280Z,4.99
2024-02-06T07:05:47.261Z,5.14
2024-02-06T07:08:13.947Z,5.13
2024-02-06T07:10:40.545Z,5.27
2024-02-06T07:13:07.562Z,5.35
2024-02-06T07:15:34.129Z,5.61
2024-02-06T07:18:00.717Z,5.58
2024-02-06T07:20:27.313Z,5.83
2024-02-06T07:22:53.933Z,5.71
2024-02-06T07:25:20.579Z,5.77
2024-02-06T07:27:47.120Z,5.73
2024-02-06T07:30:23.321Z,5.65
2024-02-06T07:32:56.545Z,5.85
2024-02-06T07:35:23.605Z,6.04
2024-02-06T07:37:50.094Z,6.05
2024-02-06T07:40:16.699Z,6.00
2024-02-06T07:42:44.831Z,6.08
2024-02-06T07:45:11.390Z,6.33
2024-02-06T07:47:38.037Z,6.42
2024-02-06T07:50:06.490Z,6.54
2024-02-06T07:52:33.198Z,6.64
2024-02-06T07:54:59.745Z,6.73
2024-02-06T07:57:26.531Z,6.80
2024-02-06T07:59:53.146Z,6.94
2024-02-06T08:02:19.781Z,7.14
2024-02-06T08:04:47.862Z,7.27
2024-02-06T08:07:14.729Z,7.30
2024-02-06T08:09:41.373Z,7.41
2024-02-06T08:12:09.398Z,7.49
2024-02-06T08:14:36.254Z,7.59
2024-02-06T08:17:02.881Z,7.80
2024-02-06T08:19:31.958Z,8.03
2024-02-06T08:21:58.726Z,8.01
2024-02-06T08:24:25.263Z,8.35
2024-02-06T08:26:51.829Z,8.56
2024-02-06T08:29:18.398Z,8.74
2024-02-06T08:31:47.927Z,8.71
2024-02-06T08:34:15.277Z,8.83
2024-02-06T08:36:41.972Z,9.05
2024-02-06T08:39:10.627Z,9.11
2024-02-06T08:41:37.379Z,9.41
2024-02-06T08:44:04.222Z,9.32
2024-02-06T08:46:31.200Z,9.58
2024-02-06T08:48:57.963Z,9.65
2024-02-06T08:51:24.533Z,9.83
2024-02-06T08:53:51.127Z,9.96
2024-02-06T08:56:17.661Z,9.92
2024-02-06T08:58:44.685Z,10.13
2024-02-06T09:01:12.062Z,10.36
2024-02-06T09:03:39.354Z,10.12
2024-02-06T09:06:07.033Z,10.08
2024-02-06T09:08:34.515Z,10.12
2024-02-06T09:11:01.289Z,10.29
2024-02-06T09:13:27.887Z,10.38
2024-02-06T09:15:54.527Z,10.36
2024-02-06T09:18:21.484Z,10.64
2024-02-06T09:20:49.394Z,10.92
2024-02-06T09:23:16.147Z,10.92
2024-02-06T09:25:45.111Z,11.31
2024-02-06T09:28:11.908Z,11.49
2024-02-06T09:30:40.969Z,11.57
2024-02-06T09:33:08.260Z,11.33
2024-02-06T09:35:35.152Z,11.50
2024-02-06T09:38:01.846Z,11.61
2024-02-06T09:40:30.022Z,11.88
2024-02-06T09:42:56.908Z,12.19
2024-02-06T09:45:23.678Z,12.38
2024-02-06T09:47:50.326Z,12.54
2024-02-06T09:50:16.911Z,12.53
2024-02-06T09:52:46.765Z,12.32
2024-02-06T09:55:15.212Z,12.49
2024-02-06T09:57:45.113Z,12.36
2024-02-06T10:00:15.346Z,12.20
2024-02-06T10:02:44.682Z,12.16
2024-02-06T10:05:16.294Z,11.97
2024-02-06T10:07:47.417Z,12.00
2024-02-06T10:10:15.668Z,12.17
2024-02-06T10:12:44.057Z,12.21
2024-02-06T10:15:16.575Z,12.32
2024-02-06T10:17:43.111Z,12.38
2024-02-06T10:20:10.290Z,12.53
2024-02-06T10:22:38.680Z,12.73
2024-02-06T10:25:05.825Z,12.73
2024-02-06T10:27:32.565Z,12.89
2024-02-06T10:30:03.804Z,13.21
2024-02-06T10:32:31.774Z,13.44
2024-02-06T10:35:09.473Z,13.66
2024-02-06T10:37:41.532Z,13.64
2024-02-06T10:40:09.150Z,13.67
2024-02-06T10:43:08.993Z,13.97
2024-02-06T10:45:23.438Z,14.02
2024-02-06T10:48:03.606Z,14.07
2024-02-06T10:50:31.531Z,14.27
2024-02-06T10:52:59.164Z,14.32
2024-02-06T10:55:26.257Z,14.26
2024-02-06T10:58:09.915Z,14.56
2024-02-06T11:00:39.187Z,14.52
2024-02-06T11:03:10.694Z,14.55
2024-02-06T11:05:49.866Z,14.74
2024-02-06T11:08:21.628Z,14.83
2024-02-06T11:10:52.907Z,15.01
2024-02-06T11:13:29.021Z,15.02
2024-02-06T11:16:03.438Z,14.87
2024-02-06T11:18:34.726Z,14.80
2024-02-06T11:21:04.768Z,15.03
2024-02-06T11:23:31.866Z,15.01
2024-02-06T11:25:58.574Z,15.22
2024-02-06T11:28:25.952Z,15.37
2024-02-06T11:31:01.410Z,15.56
2024-02-06T11:33:36.462Z,15.80
2024-02-06T11:36:21.607Z,15.97
2024-02-06T11:38:48.332Z,15.97
2024-02-06T11:41:18.633Z,15.88
2024-02-06T11:43:48.283Z,15.84
2024-02-06T11:46:14.977Z,15.84
2024-02-06T11:48:44.736Z,16.05
2024-02-06T11:51:11.451Z,16.25
2024-02-06T11:53:38.008Z,16.23
2024-02-06T11:56:05.821Z,16.35
2024-02-06T11:58:37.578Z,16.42
2024-02-06T12:01:08.005Z,16.13
2024-02-06T12:03:34.934Z,16.26
2024-02-06T12:06:02.198Z,16.35
2024-02-06T12:08:31.407Z,16.51
2024-02-06T12:11:05.931Z,16.59
2024-02-06T12:13:34.726Z,16.45
2024-02-06T12:16:06.079Z,16.51
2024-02-06T12:18:33.492Z,16.60
2024-02-06T12:21:00.246Z,16.59
2024-02-06T12:23:26.893Z,16.50
2024-02-06T12:25:53.747Z,16.52
2024-02-06T12:28:21.828Z,16.49
2024-02-06T12:30:51.517Z,16.48
2024-02-06T12:33:18.726Z,16.48
2024-02-06T12:35:46.500Z,16.47
2024-02-06T12:38:14.242Z,16.32
2024-02-06T12:40:44.240Z,16.28
2024-02-06T12:43:15.487Z,16.44
2024-02-06T12:45:43.766Z,16.39
2024-02-06T12:48:11.093Z,16.47
2024-02-06T12:50:38.231Z,16.45
2024-02-06T12:53:06.139Z,16.43
2024-02-06T12:55:33.909Z,16.32
2024-02-06T12:58:01.564Z,16.42
2024-02-06T13:00:29.152Z,16.35
2024-02-06T13:03:01.356Z,16.24
2024-02-06T13:05:31.353Z,16.26
2024-02-06T13:08:12.377Z,16.08
2024-02-06T13:10:39.748Z,16.27
2024-02-06T13:13:07.444Z,16.28
2024-02-06T13:15:35.865Z,16.28
2024-02-06T13:18:04.010Z,16.40
2024-02-06T13:20:32.767Z,16.36
2024-02-06T13:23:12.968Z,16.20
2024-02-06T13:25:40.893Z,16.25
2024-02-06T13:28:08.422Z,16.14
2024-02-06T13:30:37.423Z,16.17
2024-02-06T13:33:05.692Z,16.08
2024-02-06T13:35:32.482Z,15.97
2024-02-06T13:38:01.773Z,16.03
2024-02-06T13:40:29.017Z,15.95
2024-02-06T13:42:55.660Z,15.92
2024-02-06T13:45:22.211Z,15.93
2024-02-06T13:47:48.815Z,15.87
2024-02-06T13:50:15.537Z,15.83
2024-02-06T13:52:42.431Z,15.89
2024-02-06T13:55:11.204Z,15.79
2024-02-06T13:57:38.467Z,15.70
2024-02-06T14:00:06.144Z,15.60
2024-02-06T14:02:33.308Z,15.54
2024-02-06T14:05:00.264Z,15.60
2024-02-06T14:07:27.422Z,15.57
2024-02-06T14:09:54.079Z,15.53
2024-02-06T14:12:26.137Z,15.45
2024-02-06T14:14:56.010Z,15.49
2024-02-06T14:17:24.494Z,15.43
2024-02-06T14:19:53.592Z,15.41
2024-02-06T14:22:20.142Z,15.37
2024-02-06T14:24:47.159Z,15.32
2024-02-06T14:27:13.770Z,15.28
2024-02-06T14:29:40.337Z,15.29
2024-02-06T14:32:06.883Z,15.30
2024-02-06T14:34:33.498Z,15.28
2024-02-06T14:37:04.107Z,15.26
2024-02-06T14:39:30.851Z,15.19
2024-02-06T14:41:57.439Z,15.13
2024-02-06T14:44:36.164Z,15.06
2024-02-06T14:47:07.548Z,15.01
2024-02-06T14:49:34.334Z,15.04
2024-02-06T14:52:01.104Z,15.03
2024-02-06T14:54:27.654Z,14.96
2024-02-06T14:56:54.237Z,14.84
2024-02-06T14:59:20.806Z,14.70
2024-02-06T15:01:47.406Z,14.58
2024-02-06T15:04:14.077Z,14.58
2024-02-06T15:06:40.680Z,14.53
2024-02-06T15:09:10.849Z,14.45
2024-02-06T15:11:40.434Z,14.48
2024-02-06T15:14:07.407Z,14.42
2024-02-06T15:16:33.968Z,14.33
2024-02-06T15:19:00.787Z,14.23
2024-02-06T15:21:27.545Z,14.11
2024-02-06T15:23:54.157Z,14.07
2024-02-06T15:26:28.109Z,13.97
2024-02-06T15:28:55.060Z,13.83
2024-02-06T15:31:21.680Z,13.78
2024-02-06T15:33:48.379Z,13.71
2024-02-06T15:36:15.026Z,13.67
2024-02-06T15:38:41.608Z,13.52
2024-02-06T15:41:08.255Z,13.49
2024-02-06T15:43:35.188Z,13.44
2024-02-06T15:46:02.398Z,13.33
2024-02-06T15:48:28.922Z,13.13
2024-02-06T15:50:55.540Z,13.13
2024-02-06T15:53:22.054Z,13.07
2024-02-06T15:55:48.657Z,12.75
2024-02-06T15:58:15.233Z,12.76
2024-02-06T16:00:42.621Z,12.71
2024-02-06T16:03:11.018Z,12.70
2024-02-06T16:05:37.779Z,12.60
2024-02-06T16:08:06.022Z,12.61
2024-02-06T16:10:34.480Z,12.61
2024-02-06T16:13:01.136Z,12.58
2024-02-06T16:15:27.661Z,12.43
2024-02-06T16:17:54.156Z,12.35
2024-02-06T16:20:21.069Z,12.31
2024-02-06T16:22:47.775Z,12.18
2024-02-06T16:25:14.987Z,12.18
2024-02-06T16:27:43.820Z,12.14
2024-02-06T16:30:10.849Z,12.08
2024-02-06T16:32:37.441Z,12.02
2024-02-06T16:35:11.940Z,11.99
2024-02-06T16:37:39.795Z,11.92
2024-02-06T16:40:07.352Z,11.89
2024-02-06T16:42:33.964Z,11.92
2024-02-06T16:45:00.610Z,11.93
2024-02-06T16:47:27.232Z,11.88
2024-02-06T16:49:54.141Z,11.86
2024-02-06T16:52:21.149Z,11.78
2024-02-06T16:54:47.781Z,11.69
2024-02-06T16:57:14.384Z,11.65
2024-02-06T16:59:40.952Z,11.59
2024-02-06T17:02:07.682Z,11.59
2024-02-06T17:04:36.008Z,11.46
2024-02-06T17:07:02.667Z,11.51
2024-02-06T17:09:29.223Z,11.54
2024-02-06T17:11:55.831Z,11.45
2024-02-06T17:14:22.444Z,11.41
2024-02-06T17:16:49.360Z,11.38
2024-02-06T17:19:16.526Z,11.33
2024-02-06T17:21:46.699Z,11.28
2024-02-06T17:24:13.663Z,11.32
2024-02-06T17:26:40.300Z,11.32
2024-02-06T17:29:07.112Z,11.24
2024-02-06T17:31:33.676Z,11.24
2024-02-06T17:34:00.533Z,11.14
2024-02-06T17:36:27.762Z,11.13
2024-02-06T17:38:54.419Z,11.08
2024-02-06T17:41:20.970Z,11.04
2024-02-06T17:43:47.686Z,10.97
2024-02-06T17:46:14.268Z,11.03
2024-02-06T17:48:41.984Z,11.04
2024-02-06T17:51:09.108Z,11.02
2024-02-06T17:53:36.169Z,10.93
2024-02-06T17:56:02.939Z,10.91
2024-02-06T17:58:32.580Z,10.82
2024-02-06T18:00:59.204Z,10.85
2024-02-06T18:03:25.779Z,10.82
2024-02-06T18:05:52.397Z,10.78
2024-02-06T18:08:20.113Z,10.76
2024-02-06T18:10:46.902Z,10.73
2024-02-06T18:13:13.502Z,10.71
2024-02-06T18:15:40.510Z,10.70
2024-02-06T18:18:07.071Z,10.66
2024-02-06T18:20:33.666Z,10.62
2024-02-06T18:23:00.203Z,10.57
2024-02-06T18:25:27.158Z,10.56
2024-02-06T18:27:54.155Z,10.58
2024-02-06T18:30:21.592Z,10.48
2024-02-06T18:32:48.239Z,10.46
2024-02-06T18:35:20.110Z,10.46
2024-02-06T18:37:46.886Z,10.49
2024-02-06T18:40:14.932Z,10.39
2024-02-06T18:42:41.755Z,10.28
2024-02-06T18:45:09.867Z,10.23
2024-02-06T18:47:36.954Z,10.23
2024-02-06T18:50:06.500Z,10.17
2024-02-06T18:52:35.845Z,10.19
2024-02-06T18:55:02.597Z,10.21
2024-02-06T18:57:30.936Z,10.05
2024-02-06T19:00:00.592Z,10.05
2024-02-06T19:02:27.632Z,10.01
2024-02-06T19:04:54.389Z,9.97
2024-02-06T19:07:21.366Z,9.92
2024-02-06T19:09:48.344Z,9.98
2024-02-06T19:12:19.695Z,9.89
2024-02-06T19:14:47.004Z,9.83
2024-02-06T19:17:13.537Z,9.79
2024-02-06T19:19:40.412Z,9.77
2024-02-06T19:22:07.033Z,9.77
2024-02-06T19:24:37.066Z,9.78
2024-02-06T19:27:06.348Z,9.65
2024-02-06T19:29:32.865Z,9.61
2024-02-06T19:31:59.627Z,9.60
2024-02-06T19:34:26.641Z,9.58
2024-02-06T19:36:56.235Z,9.53
2024-02-06T19:39:23.765Z,9.48
2024-02-06T19:41:51.143Z,9.53
2024-02-06T19:44:17.740Z,9.57
2024-02-06T19:46:44.490Z,9.59
2024-02-06T19:49:11.745Z,9.52
2024-02-06T19:51:39.268Z,9.53
2024-02-06T19:54:06.222Z,9.57
2024-02-06T19:56:33.423Z,9.60
2024-02-06T19:59:02.488Z,9.54
2024-02-06T20:01:29.089Z,9.50
2024-02-06T20:03:55.845Z,9.53
2024-02-06T20:06:22.284Z,9.41
2024-02-06T20:08:52.018Z,9.33
2024-02-06T20:11:21.439Z,9.38
2024-02-06T20:13:48.068Z,9.33
2024-02-06T20:16:14.864Z,9.15
2024-02-06T20:18:41.607Z,9.23
2024-02-06T20:21:08.194Z,9.21
2024-02-06T20:23:38.328Z,9.29
2024-02-06T20:26:07.007Z,9.27
2024-02-06T20:28:33.993Z,9.16
2024-02-06T20:31:02.431Z,9.07
2024-02-06T20:33:30.367Z,9.08
2024-02-06T20:35:56.925Z,9.09
2024-02-06T20:38:23.452Z,9.05
2024-02-06T20:40:51.176Z,9.11
2024-02-06T20:43:17.905Z,9.11
2024-02-06T20:45:44.553Z,9.01
2024-02-06T20:48:11.326Z,9.00
2024-02-06T20:50:38.038Z,8.89
2024-02-06T20:53:05.084Z,8.81
2024-02-06T20:55:31.622Z,8.77
2024-02-06T20:57:58.974Z,8.82
2024-02-06T21:00:25.580Z,8.71
2024-02-06T21:02:52.720Z,8.68
2024-02-06T21:05:19.394Z,8.65
2024-02-06T21:07:47.178Z,8.66
2024-02-06T21:10:13.851Z,8.65
2024-02-06T21:12:40.968Z,8.65
2024-02-06T21:15:08.327Z,8.64
2024-02-06T21:17:35.471Z,8.65
2024-02-06T21:20:02.326Z,8.64
2024-02-06T21:22:28.972Z,8.59
2024-02-06T21:24:55.528Z,8.59
2024-02-06T21:27:22.101Z,8.53
2024-02-06T21:29:48.723Z,8.58
2024-02-06T21:32:15.335Z,8.61
2024-02-06T21:34:42.494Z,8.59
2024-02-06T21:37:09.821Z,8.64
2024-02-06T21:39:36.550Z,8.62
2024-02-06T21:42:04.421Z,8.59
2024-02-06T21:44:31.082Z,8.58
2024-02-06T21:46:57.669Z,8.59
2024-02-06T21:49:24.547Z,8.61
2024-02-06T21:51:51.134Z,8.62
2024-02-06T21:54:17.714Z,8.60
2024-02-06T21:56:44.568Z,8.61
2024-02-06T21:59:11.082Z,8.63
2024-02-06T22:01:37.679Z,8.60
2024-02-06T22:04:04.545Z,8.53
2024-02-06T22:06:31.563Z,8.57
2024-02-06T22:08:58.207Z,8.60
2024-02-06T22:11:31.074Z,8.62
2024-02-06T22:13:57.956Z,8.61
2024-02-06T22:16:24.545Z,8.61
2024-02-06T22:18:51.141Z,8.66
2024-02-06T22:21:18.005Z,8.64
2024-02-06T22:23:44.530Z,8.59
2024-02-06T22:26:11.812Z,8.58
2024-02-06T22:28:38.389Z,8.58
2024-02-06T22:31:06.730Z,8.56
2024-02-06T22:33:33.966Z,8.50
2024-02-06T22:36:00.625Z,8.55
2024-02-06T22:38:27.149Z,8.56
2024-02-06T22:40:56.558Z,8.33
2024-02-06T22:43:25.228Z,8.16
2024-02-06T22:45:51.988Z,8.04
2024-02-06T22:48:18.580Z,7.98
2024-02-06T22:50:45.612Z,7.91
2024-02-06T22:53:12.276Z,8.00
2024-02-06T22:55:38.892Z,7.93
2024-02-06T22:58:06.600Z,7.74
2024-02-06T23:00:33.766Z,7.72
2024-02-06T23:03:01.910Z,7.68
2024-02-06T23:05:28.496Z,7.70
2024-02-06T23:07:56.967Z,7.72
2024-02-06T23:10:23.659Z,7.75
2024-02-06T23:12:50.932Z,7.61
2024-02-06T23:15:18.680Z,7.66
2024-02-06T23:17:49.697Z,7.63
2024-02-06T23:20:16.696Z,7.62
2024-02-06T23:22:43.410Z,7.69
2024-02-06T23:25:11.273Z,7.66
2024-02-06T23:27:38.389Z,7.61
2024-02-06T23:30:07.529Z,7.66
2024-02-06T23:32:34.389Z,7.70
2024-02-06T23:35:01.291Z,7.64
2024-02-06T23:37:28.177Z,7.50
2024-02-06T23:39:54.800Z,7.57
2024-02-06T23:42:21.673Z,7.37
2024-02-06T23:44:48.401Z,7.35
2024-02-06T23:47:14.953Z,7.37
2024-02-06T23:49:41.615Z,7.42
2024-02-06T23:52:08.303Z,7.47
2024-02-06T23:54:36.519Z,7.45
2024-02-06T23:57:03.158Z,7.47
2024-02-06T23:59:29.738Z,7.54
